createdAt,value
2019-02-21T00:02:26.118Z,21.70
2019-02-21T00:04:55.794Z,24.93
2019-02-21T00:07:25.847Z,25.07
2019-02-21T00:09:56.847Z,25.55
2019-02-21T00:12:26.569Z,21.37
2019-02-21T00:14:56.242Z,21.93
2019-02-21T00:17:26.893Z,19.47
2019-02-21T00:19:56.575Z,25.87
2019-02-21T00:22:26.365Z,24.80
2019-02-21T00:24:56.024Z,22.67
2019-02-21T00:27:25.701Z,22.73
2019-02-21T00:29:55.381Z,25.07
2019-02-21T00:32:25.143Z,23.50
2019-02-21T00:34:54.811Z,19.43
2019-02-21T00:37:24.579Z,27.97
2019-02-21T00:39:54.619Z,25.60
2019-02-21T00:42:24.625Z,20.50
2019-02-21T00:44:54.599Z,28.77
2019-02-21T00:47:24.283Z,25.20
2019-02-21T00:49:53.969Z,25.93
2019-02-21T00:52:23.638Z,22.50
2019-02-21T00:54:53.316Z,26.97
2019-02-21T00:57:23.051Z,26.13
2019-02-21T00:59:52.731Z,22.73
2019-02-21T01:02:22.409Z,24.27
2019-02-21T01:04:52.140Z,22.80
2019-02-21T01:07:21.957Z,24.70
2019-02-21T01:09:51.916Z,22.50
2019-02-21T01:12:21.934Z,23.67
2019-02-21T01:14:51.619Z,22.65
2019-02-21T01:17:21.634Z,24.20
2019-02-21T01:19:51.319Z,30.73
2019-02-21T01:22:20.996Z,19.00
2019-02-21T01:24:50.682Z,22.90
2019-02-21T01:27:20.342Z,26.40
2019-02-21T01:29:50.307Z,21.70
2019-02-21T01:32:20.011Z,27.40
2019-02-21T01:34:49.952Z,21.48
2019-02-21T01:37:19.627Z,21.87
2019-02-21T01:39:49.331Z,19.10
2019-02-21T01:42:19.557Z,23.40
2019-02-21T01:44:49.478Z,21.47
2019-02-21T01:47:19.157Z,25.17
2019-02-21T01:49:48.836Z,27.73
2019-02-21T01:52:18.733Z,23.97
2019-02-21T01:54:49.385Z,22.57
2019-02-21T01:57:19.211Z,24.37
2019-02-21T01:59:48.891Z,25.10
2019-02-21T02:02:18.873Z,27.80
2019-02-21T02:04:48.689Z,25.60
2019-02-21T02:07:18.305Z,20.17
2019-02-21T02:09:47.995Z,24.53
2019-02-21T02:12:17.662Z,22.63
2019-02-21T02:14:48.314Z,25.93
2019-02-21T02:17:17.987Z,24.87
2019-02-21T02:19:47.673Z,20.57
2019-02-21T02:22:17.584Z,22.37
2019-02-21T02:24:47.508Z,24.57
2019-02-21T02:27:17.190Z,24.10
2019-02-21T02:29:46.871Z,23.17
2019-02-21T02:32:16.913Z,27.23
2019-02-21T02:34:46.672Z,23.37
2019-02-21T02:37:16.337Z,24.90
2019-02-21T02:39:46.029Z,21.77
2019-02-21T02:42:17.408Z,22.57
2019-02-21T02:44:48.536Z,20.80
2019-02-21T02:47:18.212Z,24.80
2019-02-21T02:49:48.244Z,23.23
2019-02-21T02:52:17.996Z,28.10
2019-02-21T02:54:48.150Z,28.97
2019-02-21T02:57:17.827Z,29.83
2019-02-21T02:59:47.511Z,25.10
2019-02-21T03:02:17.198Z,33.20
2019-02-21T03:04:46.914Z,23.45
2019-02-21T03:07:16.573Z,21.80
2019-02-21T03:09:46.860Z,22.83
2019-02-21T03:12:16.883Z,26.20
2019-02-21T03:14:46.797Z,23.37
2019-02-21T03:17:16.476Z,26.83
2019-02-21T03:19:46.430Z,24.80
2019-02-21T03:22:16.110Z,32.17
2019-02-21T03:24:45.795Z,26.40
2019-02-21T03:27:15.506Z,25.30
2019-02-21T03:29:45.209Z,26.57
2019-02-21T03:32:15.169Z,28.83
2019-02-21T03:34:44.910Z,25.43
2019-02-21T03:37:14.986Z,25.03
2019-02-21T03:39:44.669Z,27.87
2019-02-21T03:42:14.346Z,32.13
2019-02-21T03:44:44.042Z,26.23
2019-02-21T03:47:13.735Z,29.13
2019-02-21T03:49:43.524Z,22.13
2019-02-21T03:52:13.446Z,28.37
2019-02-21T03:54:43.131Z,24.67
2019-02-21T03:57:13.287Z,25.47
2019-02-21T03:59:43.026Z,28.03
2019-02-21T04:02:12.706Z,30.77
2019-02-21T04:04:42.921Z,25.30
2019-02-21T04:07:12.681Z,23.83
2019-02-21T04:09:42.358Z,26.33
2019-02-21T04:12:12.131Z,26.70
2019-02-21T04:14:41.877Z,26.40
2019-02-21T04:17:11.951Z,31.03
2019-02-21T04:19:42.057Z,26.17
2019-02-21T04:22:12.785Z,28.07
2019-02-21T04:24:42.720Z,28.00
2019-02-21T04:27:12.393Z,24.97
2019-02-21T04:29:42.068Z,30.20
2019-02-21T04:32:17.046Z,27.70
2019-02-21T04:34:43.404Z,29.77
2019-02-21T04:37:13.083Z,30.63
2019-02-21T04:39:43.293Z,26.53
2019-02-21T04:42:13.046Z,24.90
2019-02-21T04:44:43.055Z,28.13
2019-02-21T04:47:12.970Z,29.33
2019-02-21T04:49:42.653Z,26.67
2019-02-21T04:52:12.350Z,25.97
2019-02-21T04:54:42.252Z,25.93
2019-02-21T04:57:11.930Z,27.03
2019-02-21T04:59:41.614Z,29.70
2019-02-21T05:02:11.297Z,25.93
2019-02-21T05:04:41.008Z,29.83
2019-02-21T05:07:10.663Z,32.00
2019-02-21T05:09:40.405Z,31.43
2019-02-21T05:12:10.359Z,26.00
2019-02-21T05:14:40.042Z,27.20
2019-02-21T05:17:10.058Z,28.33
2019-02-21T05:19:39.741Z,28.03
2019-02-21T05:22:09.447Z,26.20
2019-02-21T05:24:39.132Z,26.60
2019-02-21T05:27:13.086Z,26.47
2019-02-21T05:29:42.780Z,27.60
2019-02-21T05:32:40.589Z,28.03
2019-02-21T05:35:10.460Z,27.57
2019-02-21T05:37:49.654Z,28.03
2019-02-21T05:40:34.355Z,27.03
2019-02-21T05:43:16.859Z,26.97
2019-02-21T05:46:03.312Z,23.27
2019-02-21T05:48:52.018Z,25.17
2019-02-21T05:51:38.624Z,26.60
2019-02-21T05:54:13.224Z,27.43
2019-02-21T05:57:00.822Z,29.33
2019-02-21T05:59:43.569Z,28.87
2019-02-21T06:02:25.928Z,25.70
2019-02-21T06:05:04.186Z,32.83
2019-02-21T06:08:02.447Z,26.57
2019-02-21T06:11:03.142Z,23.17
2019-02-21T06:13:56.355Z,26.90
2019-02-21T06:16:43.583Z,30.47
2019-02-21T06:19:29.194Z,26.87
2019-02-21T06:22:11.328Z,21.33
2019-02-21T06:25:05.604Z,28.07
2019-02-21T06:27:52.463Z,28.03
2019-02-21T06:30:30.566Z,22.93
2019-02-21T06:33:05.183Z,23.07
2019-02-21T06:35:31.635Z,27.13
2019-02-21T06:38:01.369Z,30.93
2019-02-21T06:40:31.390Z,29.23
2019-02-21T06:43:01.070Z,22.63
2019-02-21T06:45:31.046Z,24.83
2019-02-21T06:48:00.714Z,30.93
2019-02-21T06:50:30.464Z,25.33
2019-02-21T06:53:00.535Z,28.00
2019-02-21T06:55:30.230Z,26.43
2019-02-21T06:58:00.153Z,23.37
2019-02-21T07:00:29.894Z,26.67
2019-02-21T07:02:59.874Z,33.50
2019-02-21T07:05:29.560Z,29.67
2019-02-21T07:07:59.255Z,28.60
2019-02-21T07:10:28.921Z,31.83
2019-02-21T07:12:58.619Z,27.80
2019-02-21T07:15:28.540Z,29.63
2019-02-21T07:17:58.293Z,29.37
2019-02-21T07:20:27.954Z,29.30
2019-02-21T07:22:57.621Z,28.73
2019-02-21T07:25:44.581Z,28.23
2019-02-21T07:28:15.890Z,30.20
2019-02-21T07:30:46.217Z,29.30
2019-02-21T07:33:27.204Z,29.13
2019-02-21T07:35:47.259Z,23.27
2019-02-21T07:38:17.345Z,33.83
2019-02-21T07:40:47.079Z,31.80
2019-02-21T07:43:16.768Z,26.00
2019-02-21T07:45:46.455Z,29.07
2019-02-21T07:48:16.482Z,31.40
2019-02-21T07:50:46.165Z,29.73
2019-02-21T07:53:16.367Z,32.60
2019-02-21T07:55:47.072Z,26.73
2019-02-21T07:58:17.148Z,28.90
2019-02-21T08:00:47.065Z,33.18
2019-02-21T08:03:29.470Z,30.20
2019-02-21T08:05:49.800Z,28.47
2019-02-21T08:08:21.008Z,28.53
2019-02-21T08:10:51.777Z,33.10
2019-02-21T08:13:21.446Z,29.07
2019-02-21T08:15:51.119Z,33.43
2019-02-21T08:18:21.079Z,28.77
2019-02-21T08:20:51.008Z,28.85
2019-02-21T08:23:20.872Z,28.03
2019-02-21T08:25:50.900Z,29.77
2019-02-21T08:28:20.593Z,30.33
2019-02-21T08:30:50.536Z,25.17
2019-02-21T08:33:37.721Z,25.57
2019-02-21T08:36:07.836Z,34.27
2019-02-21T08:38:37.503Z,32.43
2019-02-21T08:41:07.268Z,33.53
2019-02-21T08:43:37.363Z,30.10
2019-02-21T08:46:07.395Z,28.60
2019-02-21T08:48:37.078Z,31.10
2019-02-21T08:51:06.746Z,30.85
2019-02-21T08:53:36.429Z,33.23
2019-02-21T08:56:06.355Z,29.97
2019-02-21T08:58:36.041Z,30.73
2019-02-21T09:01:05.796Z,31.90
2019-02-21T09:03:35.926Z,29.07
2019-02-21T09:06:05.601Z,33.87
2019-02-21T09:08:37.242Z,31.27
2019-02-21T09:11:06.714Z,31.00
2019-02-21T09:13:36.400Z,26.17
2019-02-21T09:16:06.071Z,30.23
2019-02-21T09:18:35.824Z,27.80
2019-02-21T09:21:05.513Z,28.33
2019-02-21T09:23:35.437Z,32.20
2019-02-21T09:26:05.137Z,28.83
2019-02-21T09:28:35.241Z,30.60
2019-02-21T09:31:05.031Z,32.37
2019-02-21T09:33:37.119Z,21.30
2019-02-21T09:36:06.702Z,27.30
2019-02-21T09:38:36.390Z,28.57
2019-02-21T09:41:06.326Z,30.48
2019-02-21T09:43:36.014Z,30.33
2019-02-21T09:46:05.834Z,29.33
2019-02-21T09:48:35.502Z,33.33
2019-02-21T09:51:05.167Z,39.17
2019-02-21T09:53:35.097Z,31.80
2019-02-21T09:56:04.773Z,23.47
2019-02-21T09:58:34.505Z,30.43
2019-02-21T10:01:04.239Z,18.57
2019-02-21T10:03:33.949Z,30.17
2019-02-21T10:06:04.349Z,25.90
2019-02-21T10:08:34.034Z,32.73
2019-02-21T10:11:03.709Z,29.93
2019-02-21T10:13:33.382Z,33.10
2019-02-21T10:16:04.790Z,33.73
2019-02-21T10:18:34.665Z,32.57
2019-02-21T10:21:04.645Z,26.07
2019-02-21T10:23:34.648Z,14.23
2019-02-21T10:26:04.475Z,27.30
2019-02-21T10:28:34.397Z,31.43
2019-02-21T10:31:04.319Z,26.43
2019-02-21T10:33:34.053Z,23.57
2019-02-21T10:36:03.801Z,25.67
2019-02-21T10:38:33.470Z,27.93
2019-02-21T10:41:04.352Z,22.07
2019-02-21T10:43:34.109Z,27.03
2019-02-21T10:46:03.919Z,28.53
2019-02-21T10:48:33.593Z,23.03
2019-02-21T10:51:03.330Z,28.97
2019-02-21T10:53:33.007Z,22.40
2019-02-21T10:56:02.676Z,27.47
2019-02-21T10:58:32.347Z,28.07
2019-02-21T11:01:02.418Z,23.50
2019-02-21T11:03:33.198Z,26.93
2019-02-21T11:06:02.885Z,24.77
2019-02-21T11:08:32.573Z,27.27
2019-02-21T11:11:02.273Z,29.07
2019-02-21T11:13:31.943Z,26.13
2019-02-21T11:16:01.613Z,26.73
2019-02-21T11:18:31.572Z,30.43
2019-02-21T11:21:01.534Z,22.23
2019-02-21T11:23:31.552Z,25.37
2019-02-21T11:26:01.224Z,24.20
2019-02-21T11:28:30.897Z,20.73
2019-02-21T11:31:00.571Z,25.33
2019-02-21T11:33:30.253Z,11.43
2019-02-21T11:35:59.917Z,20.03
2019-02-21T11:38:29.632Z,26.00
2019-02-21T11:40:59.548Z,25.80
2019-02-21T11:43:29.229Z,27.43
2019-02-21T11:45:59.255Z,25.03
2019-02-21T11:48:28.924Z,19.17
2019-02-21T11:50:58.582Z,20.70
2019-02-21T11:53:28.272Z,21.77
2019-02-21T11:55:57.990Z,26.00
2019-02-21T11:58:27.979Z,14.87
2019-02-21T12:00:58.010Z,27.57
2019-02-21T12:03:27.708Z,21.27
2019-02-21T12:05:57.375Z,21.30
2019-02-21T12:08:27.054Z,23.73
2019-02-21T12:10:57.125Z,20.70
2019-02-21T12:13:26.895Z,18.83
2019-02-21T12:15:59.076Z,18.03
2019-02-21T12:18:28.961Z,21.63
2019-02-21T12:20:58.645Z,19.83
2019-02-21T12:23:28.316Z,16.07
2019-02-21T12:25:57.979Z,24.40
2019-02-21T12:28:28.075Z,22.83
2019-02-21T12:30:57.750Z,22.13
2019-02-21T12:33:27.438Z,22.40
2019-02-21T12:35:59.408Z,26.13
2019-02-21T12:38:28.746Z,13.77
2019-02-21T12:40:58.769Z,18.27
2019-02-21T12:43:29.429Z,19.50
2019-02-21T12:46:02.700Z,20.13
2019-02-21T12:48:32.353Z,18.30
2019-02-21T12:51:02.022Z,18.17
2019-02-21T12:53:32.119Z,15.30
2019-02-21T12:56:01.785Z,15.97
2019-02-21T12:58:31.463Z,19.97
2019-02-21T13:01:01.122Z,18.13
2019-02-21T13:03:32.080Z,16.20
2019-02-21T13:06:01.736Z,19.50
2019-02-21T13:08:31.496Z,17.30
2019-02-21T13:11:01.424Z,15.47
2019-02-21T13:13:31.733Z,19.10
2019-02-21T13:16:01.406Z,19.73
2019-02-21T13:18:31.072Z,17.87
2019-02-21T13:21:00.746Z,13.43
2019-02-21T13:23:30.432Z,13.10
2019-02-21T13:26:00.094Z,22.53
2019-02-21T13:28:30.050Z,21.83
2019-02-21T13:30:59.947Z,14.93
2019-02-21T13:33:29.937Z,13.63
2019-02-21T13:36:00.956Z,21.87
2019-02-21T13:38:30.693Z,18.23
2019-02-21T13:41:00.378Z,13.50
2019-02-21T13:43:30.146Z,19.00
2019-02-21T13:45:59.814Z,17.50
2019-02-21T13:48:29.486Z,20.37
2019-02-21T13:51:00.066Z,20.17
2019-02-21T13:53:29.733Z,24.03
2019-02-21T13:56:00.634Z,24.27
2019-02-21T13:58:30.310Z,28.33
2019-02-21T14:00:59.983Z,23.73
2019-02-21T14:03:29.654Z,20.70
2019-02-21T14:06:03.543Z,27.07
2019-02-21T14:08:30.800Z,24.50
2019-02-21T14:11:00.765Z,29.87
2019-02-21T14:13:30.420Z,17.70
2019-02-21T14:16:00.112Z,25.40
2019-02-21T14:18:30.113Z,27.97
2019-02-21T14:21:01.043Z,24.50
2019-02-21T14:23:30.719Z,21.40
2019-02-21T14:26:00.403Z,22.47
2019-02-21T14:28:30.069Z,25.73
2019-02-21T14:30:59.780Z,23.37
2019-02-21T14:33:29.561Z,24.83
2019-02-21T14:35:59.597Z,19.53
2019-02-21T14:38:29.278Z,21.70
2019-02-21T14:40:58.957Z,22.70
2019-02-21T14:43:28.686Z,16.13
2019-02-21T14:45:58.372Z,20.60
2019-02-21T14:48:28.042Z,23.73
2019-02-21T14:50:57.725Z,24.47
2019-02-21T14:53:27.397Z,21.53
2019-02-21T14:55:57.468Z,21.63
2019-02-21T14:58:27.483Z,25.87
2019-02-21T15:00:57.499Z,24.07
2019-02-21T15:03:28.122Z,17.63
2019-02-21T15:05:57.807Z,27.07
2019-02-21T15:08:27.512Z,18.73
2019-02-21T15:10:57.399Z,19.40
2019-02-21T15:13:27.158Z,20.93
2019-02-21T15:15:56.835Z,23.10
2019-02-21T15:18:26.500Z,24.53
2019-02-21T15:20:56.511Z,25.40
2019-02-21T15:23:26.515Z,23.50
2019-02-21T15:25:56.454Z,27.63
2019-02-21T15:28:27.093Z,15.73
2019-02-21T15:30:56.776Z,23.40
2019-02-21T15:33:26.441Z,17.77
2019-02-21T15:35:56.394Z,26.90
2019-02-21T15:38:26.339Z,28.03
2019-02-21T15:40:56.324Z,20.20
2019-02-21T15:43:26.069Z,23.30
2019-02-21T15:45:55.744Z,26.07
2019-02-21T15:48:25.416Z,29.43
2019-02-21T15:50:55.096Z,20.63
2019-02-21T15:53:24.763Z,26.03
2019-02-21T15:55:54.781Z,22.33
2019-02-21T15:58:24.453Z,23.70
2019-02-21T16:00:54.134Z,25.57
2019-02-21T16:03:24.269Z,23.13
2019-02-21T16:05:53.960Z,22.43
2019-02-21T16:08:24.695Z,21.23
2019-02-21T16:10:54.476Z,19.40
2019-02-21T16:13:24.629Z,19.10
2019-02-21T16:15:54.562Z,21.67
2019-02-21T16:18:24.245Z,19.70
2019-02-21T16:20:53.945Z,21.67
2019-02-21T16:23:23.926Z,20.23
2019-02-21T16:25:53.602Z,23.70
2019-02-21T16:28:23.275Z,20.43
2019-02-21T16:30:52.958Z,20.40
2019-02-21T16:33:22.636Z,26.13
2019-02-21T16:35:52.545Z,22.10
2019-02-21T16:38:22.335Z,20.50
2019-02-21T16:40:52.293Z,18.93
2019-02-21T16:43:21.963Z,24.50
2019-02-21T16:45:53.872Z,21.07
2019-02-21T16:48:23.089Z,21.57
2019-02-21T16:50:52.763Z,24.33
2019-02-21T16:53:22.511Z,18.40
2019-02-21T16:55:52.195Z,25.13
2019-02-21T16:58:21.856Z,21.43
2019-02-21T17:00:56.595Z,19.20
2019-02-21T17:03:23.157Z,22.83
2019-02-21T17:05:52.839Z,16.80
2019-02-21T17:08:22.631Z,21.70
2019-02-21T17:10:52.293Z,22.47
2019-02-21T17:13:21.961Z,20.03
2019-02-21T17:15:51.901Z,19.87
2019-02-21T17:18:21.568Z,22.17
2019-02-21T17:20:51.504Z,22.07
2019-02-21T17:23:23.004Z,19.57
2019-02-21T17:25:52.902Z,20.70
2019-02-21T17:28:22.571Z,22.03
2019-02-21T17:30:52.253Z,18.90
2019-02-21T17:33:21.927Z,22.93
2019-02-21T17:35:51.600Z,20.07
2019-02-21T17:38:21.746Z,19.20
2019-02-21T17:40:51.757Z,17.83
2019-02-21T17:43:21.873Z,20.30
2019-02-21T17:45:51.625Z,19.98
2019-02-21T17:48:21.288Z,14.80
2019-02-21T17:50:51.311Z,19.20
2019-02-21T17:53:21.043Z,10.77
2019-02-21T17:55:51.038Z,14.73
2019-02-21T17:58:20.712Z,17.37
2019-02-21T18:00:50.376Z,18.93
2019-02-21T18:03:20.364Z,16.63
2019-02-21T18:05:50.380Z,19.33
2019-02-21T18:08:20.039Z,20.33
2019-02-21T18:10:49.718Z,19.37
2019-02-21T18:13:19.724Z,17.33
2019-02-21T18:15:49.748Z,18.00
2019-02-21T18:18:19.558Z,15.23
2019-02-21T18:20:49.218Z,18.73
2019-02-21T18:23:19.569Z,27.00
2019-02-21T18:25:53.638Z,23.83
2019-02-21T18:28:23.541Z,16.70
2019-02-21T18:30:55.403Z,20.03
2019-02-21T18:33:25.078Z,13.90
2019-02-21T18:35:54.951Z,20.60
2019-02-21T18:38:24.888Z,18.03
2019-02-21T18:40:54.948Z,21.50
2019-02-21T18:43:24.695Z,19.50
2019-02-21T18:45:54.386Z,25.05
2019-02-21T18:48:24.321Z,23.57
2019-02-21T18:50:55.055Z,18.93
2019-02-21T18:53:24.725Z,30.57
2019-02-21T18:55:54.469Z,23.67
2019-02-21T18:58:24.524Z,29.37
2019-02-21T19:00:54.699Z,25.93
2019-02-21T19:03:24.378Z,33.20
2019-02-21T19:05:54.341Z,29.77
2019-02-21T19:08:24.358Z,31.07
2019-02-21T19:10:54.400Z,32.42
2019-02-21T19:13:24.417Z,27.83
2019-02-21T19:15:54.166Z,29.50
2019-02-21T19:18:24.344Z,31.67
2019-02-21T19:20:54.019Z,32.43
2019-02-21T19:23:24.045Z,31.37
2019-02-21T19:25:53.794Z,31.07
2019-02-21T19:28:23.539Z,32.23
2019-02-21T19:30:57.555Z,31.40
2019-02-21T19:33:27.404Z,35.83
2019-02-21T19:35:57.136Z,34.73
2019-02-21T19:38:26.961Z,33.57
2019-02-21T19:40:56.715Z,38.70
2019-02-21T19:43:26.461Z,36.23
2019-02-21T19:45:56.207Z,33.25
2019-02-21T19:48:26.275Z,36.73
2019-02-21T19:50:56.028Z,35.55
2019-02-21T19:53:26.042Z,37.43
2019-02-21T19:55:55.724Z,33.93
2019-02-21T19:58:25.481Z,36.87
2019-02-21T20:00:55.801Z,36.77
2019-02-21T20:03:25.836Z,42.07
2019-02-21T20:05:56.626Z,42.43
2019-02-21T20:08:26.992Z,37.67
2019-02-21T20:10:56.665Z,39.43
2019-02-21T20:13:26.483Z,38.93
2019-02-21T20:15:56.541Z,44.35
2019-02-21T20:18:26.672Z,43.57
2019-02-21T20:20:56.570Z,36.87
2019-02-21T20:23:26.501Z,36.47
2019-02-21T20:25:56.414Z,36.73
2019-02-21T20:28:26.164Z,41.50
2019-02-21T20:30:55.904Z,41.57
2019-02-21T20:33:25.599Z,38.90
2019-02-21T20:35:55.274Z,44.77
2019-02-21T20:38:32.097Z,38.13
2019-02-21T20:40:56.935Z,35.70
2019-02-21T20:43:26.615Z,12.43
2019-02-21T20:45:56.952Z,27.30
2019-02-21T20:48:26.940Z,29.43
2019-02-21T20:50:57.436Z,32.73
2019-02-21T20:53:27.483Z,35.10
2019-02-21T20:55:58.287Z,38.30
2019-02-21T20:58:28.360Z,34.97
2019-02-21T21:00:58.309Z,21.53
2019-02-21T21:03:29.489Z,24.93
2019-02-21T21:05:59.249Z,41.27
2019-02-21T21:08:28.923Z,40.37
2019-02-21T21:10:59.974Z,44.03
2019-02-21T21:13:29.761Z,33.90
2019-02-21T21:15:59.433Z,41.70
2019-02-21T21:18:29.364Z,43.87
2019-02-21T21:20:59.036Z,48.27
2019-02-21T21:23:28.718Z,41.73
2019-02-21T21:25:58.470Z,12.70
2019-02-21T21:28:28.153Z,35.70
2019-02-21T21:30:57.955Z,47.57
2019-02-21T21:33:27.632Z,43.47
2019-02-21T21:35:57.612Z,31.53
2019-02-21T21:38:27.375Z,21.33
2019-02-21T21:40:57.110Z,25.03
2019-02-21T21:43:26.785Z,30.67
2019-02-21T21:45:56.463Z,50.10
2019-02-21T21:48:26.133Z,48.13
2019-02-21T21:50:55.914Z,44.17
2019-02-21T21:53:25.580Z,41.00
2019-02-21T21:55:55.502Z,45.27
2019-02-21T21:58:25.254Z,45.13
2019-02-21T22:00:54.936Z,37.33
2019-02-21T22:03:24.604Z,22.10
2019-02-21T22:05:55.589Z,46.83
2019-02-21T22:08:25.267Z,36.83
2019-02-21T22:10:55.036Z,37.13
2019-02-21T22:13:25.038Z,34.37
2019-02-21T22:15:54.771Z,18.30
2019-02-21T22:18:24.526Z,33.70
2019-02-21T22:20:54.188Z,36.98
2019-02-21T22:23:23.906Z,39.03
2019-02-21T22:25:53.607Z,32.57
2019-02-21T22:28:26.217Z,16.07
2019-02-21T22:30:55.187Z,10.37
2019-02-21T22:33:26.384Z,37.17
2019-02-21T22:35:56.209Z,40.30
2019-02-21T22:38:25.988Z,47.67
2019-02-21T22:40:55.671Z,49.60
2019-02-21T22:43:25.356Z,48.23
2019-02-21T22:45:55.018Z,51.33
2019-02-21T22:48:24.698Z,50.10
2019-02-21T22:50:54.384Z,52.77
2019-02-21T22:53:24.099Z,45.20
2019-02-21T22:55:54.172Z,26.82
2019-02-21T22:58:23.875Z,51.47
2019-02-21T23:01:27.194Z,45.57
2019-02-21T23:04:40.038Z,44.93
2019-02-21T23:08:06.520Z,26.63
2019-02-21T23:10:36.191Z,45.37
2019-02-21T23:13:06.364Z,31.53
2019-02-21T23:15:36.456Z,47.23
2019-02-21T23:18:06.217Z,48.30
2019-02-21T23:20:36.207Z,48.10
2019-02-21T23:23:05.879Z,56.10
2019-02-21T23:25:35.571Z,37.13
2019-02-21T23:28:05.233Z,46.57
2019-02-21T23:30:35.201Z,46.93
2019-02-21T23:33:04.940Z,44.53
2019-02-21T23:35:34.870Z,42.50
2019-02-21T23:38:04.873Z,48.13
2019-02-21T23:40:36.925Z,47.00
2019-02-21T23:43:05.925Z,41.07
2019-02-21T23:45:35.603Z,43.20
2019-02-21T23:48:05.345Z,38.57
2019-02-21T23:50:35.288Z,40.17
2019-02-21T23:53:04.956Z,42.00
2019-02-21T23:55:34.656Z,35.57
2019-02-21T23:58:04.737Z,38.73
